Terminal Aerodrome Forecast
Issued by NWS Quad Cities IA IL

Home | Current Version | Previous Version | Text Only | Print | Product List | Glossary On
Versions: 1 2 3 4 5 6 7 8 9 10 11 12 13 14 15 16 17 18 19 20 21 22
000
FTUS43 KDVN 290200 AAA
TAFMLI
TAF AMD
KMLI 290201Z 2902/2924 13010KT P6SM SCT120
      TEMPO 2902/2903 -SHRA BKN080
     FM290800 17012KT 5SM BR OVC015
     FM291000 30015G22KT 5SM BR OVC010
     FM291400 32020G28KT P6SM OVC020=

USA.gov is the U.S. government's official web portal to all federal, state and local government web resources and services.